sensor_id;sensor_type;location;lat;lon;timestamp;P1;durP1;ratioP1;P2;durP2;ratioP2
23594;SDS011;11975;47.674;9.472;2023-07-13T00:02:23;1999.90;;;999.90;;
23594;SDS011;11975;47.674;9.472;2023-07-13T00:04:50;1999.90;;;999.90;;
23594;SDS011;11975;47.674;9.472;2023-07-13T00:07:16;1999.90;;;999.90;;
23594;SDS011;11975;47.674;9.472;2023-07-13T00:09:46;1999.90;;;999.90;;
23594;SDS011;11975;47.674;9.472;2023-07-13T00:12:22;1999.90;;;999.90;;
23594;SDS011;11975;47.674;9.472;2023-07-13T00:15:04;1999.90;;;999.90;;
23594;SDS011;11975;47.674;9.472;2023-07-13T00:17:32;1999.90;;;999.90;;
23594;SDS011;11975;47.674;9.472;2023-07-13T00:19:58;1999.90;;;999.90;;
23594;SDS011;11975;47.674;9.472;2023-07-13T00:22:24;1999.90;;;999.90;;
23594;SDS011;11975;47.674;9.472;2023-07-13T00:24:51;1999.90;;;999.90;;
23594;SDS011;11975;47.674;9.472;2023-07-13T00:27:18;1999.90;;;999.90;;
23594;SDS011;11975;47.674;9.472;2023-07-13T00:29:44;1999.90;;;999.90;;
23594;SDS011;11975;47.674;9.472;2023-07-13T00:32:10;1999.90;;;999.90;;
23594;SDS011;11975;47.674;9.472;2023-07-13T00:34:37;1999.90;;;999.90;;
23594;SDS011;11975;47.674;9.472;2023-07-13T00:39:32;1999.90;;;999.90;;
23594;SDS011;11975;47.674;9.472;2023-07-13T00:41:59;1999.90;;;999.90;;
23594;SDS011;11975;47.674;9.472;2023-07-13T00:44:26;1999.90;;;999.90;;
23594;SDS011;11975;47.674;9.472;2023-07-13T00:46:52;1999.90;;;999.90;;
23594;SDS011;11975;47.674;9.472;2023-07-13T00:49:19;1999.90;;;999.90;;
23594;SDS011;11975;47.674;9.472;2023-07-13T00:52:03;1999.90;;;999.90;;
23594;SDS011;11975;47.674;9.472;2023-07-13T00:54:49;1999.90;;;999.90;;
23594;SDS011;11975;47.674;9.472;2023-07-13T00:57:16;1999.90;;;999.90;;
23594;SDS011;11975;47.674;9.472;2023-07-13T00:59:45;1999.90;;;999.90;;
23594;SDS011;11975;47.674;9.472;2023-07-13T01:02:13;1999.90;;;999.90;;
23594;SDS011;11975;47.674;9.472;2023-07-13T01:04:39;1999.90;;;999.90;;
23594;SDS011;11975;47.674;9.472;2023-07-13T01:07:06;1999.90;;;999.90;;
23594;SDS011;11975;47.674;9.472;2023-07-13T01:11:58;1999.90;;;999.90;;
23594;SDS011;11975;47.674;9.472;2023-07-13T01:14:25;1999.90;;;999.90;;
23594;SDS011;11975;47.674;9.472;2023-07-13T01:16:51;1999.90;;;999.90;;
23594;SDS011;11975;47.674;9.472;2023-07-13T01:19:37;1999.90;;;999.90;;
23594;SDS011;11975;47.674;9.472;2023-07-13T01:22:09;1999.90;;;999.90;;
23594;SDS011;11975;47.674;9.472;2023-07-13T01:24:37;1999.90;;;999.90;;
23594;SDS011;11975;47.674;9.472;2023-07-13T01:27:05;1999.90;;;999.90;;
23594;SDS011;11975;47.674;9.472;2023-07-13T01:29:32;1999.90;;;999.90;;
23594;SDS011;11975;47.674;9.472;2023-07-13T01:31:59;1999.90;;;999.90;;
23594;SDS011;11975;47.674;9.472;2023-07-13T01:34:26;1999.90;;;999.90;;
23594;SDS011;11975;47.674;9.472;2023-07-13T01:36:53;1999.90;;;999.90;;
23594;SDS011;11975;47.674;9.472;2023-07-13T01:39:20;1999.90;;;999.90;;
23594;SDS011;11975;47.674;9.472;2023-07-13T01:41:47;1999.90;;;999.90;;
23594;SDS011;11975;47.674;9.472;2023-07-13T01:44:13;1999.90;;;999.90;;
23594;SDS011;11975;47.674;9.472;2023-07-13T01:46:39;1999.90;;;999.90;;
23594;SDS011;11975;47.674;9.472;2023-07-13T01:49:05;1999.90;;;999.90;;
23594;SDS011;11975;47.674;9.472;2023-07-13T01:51:31;1999.90;;;999.90;;
23594;SDS011;11975;47.674;9.472;2023-07-13T01:53:57;1999.90;;;999.90;;
23594;SDS011;11975;47.674;9.472;2023-07-13T01:56:23;1999.90;;;999.90;;
23594;SDS011;11975;47.674;9.472;2023-07-13T01:58:49;1999.90;;;999.90;;
23594;SDS011;11975;47.674;9.472;2023-07-13T02:01:15;1999.90;;;999.90;;
23594;SDS011;11975;47.674;9.472;2023-07-13T02:03:41;1999.90;;;999.90;;
23594;SDS011;11975;47.674;9.472;2023-07-13T02:06:07;1999.90;;;999.90;;
23594;SDS011;11975;47.674;9.472;2023-07-13T02:08:33;1999.90;;;999.90;;
23594;SDS011;11975;47.674;9.472;2023-07-13T02:10:59;1999.90;;;999.90;;
23594;SDS011;11975;47.674;9.472;2023-07-13T02:13:25;1999.90;;;999.90;;
23594;SDS011;11975;47.674;9.472;2023-07-13T02:15:51;1999.90;;;999.90;;
23594;SDS011;11975;47.674;9.472;2023-07-13T02:18:17;1999.90;;;999.90;;
23594;SDS011;11975;47.674;9.472;2023-07-13T02:20:44;1999.90;;;999.90;;
23594;SDS011;11975;47.674;9.472;2023-07-13T02:23:10;1999.90;;;999.90;;
23594;SDS011;11975;47.674;9.472;2023-07-13T02:25:36;1999.90;;;999.90;;
23594;SDS011;11975;47.674;9.472;2023-07-13T02:28:03;1999.90;;;999.90;;
23594;SDS011;11975;47.674;9.472;2023-07-13T02:30:29;1999.90;;;999.90;;
23594;SDS011;11975;47.674;9.472;2023-07-13T02:32:55;1999.90;;;999.90;;
23594;SDS011;11975;47.674;9.472;2023-07-13T02:35:22;1999.90;;;999.90;;
23594;SDS011;11975;47.674;9.472;2023-07-13T02:37:48;1999.90;;;999.90;;
23594;SDS011;11975;47.674;9.472;2023-07-13T02:40:14;1999.90;;;999.90;;
23594;SDS011;11975;47.674;9.472;2023-07-13T02:42:40;1999.90;;;999.90;;
23594;SDS011;11975;47.674;9.472;2023-07-13T02:45:07;1999.90;;;999.90;;
23594;SDS011;11975;47.674;9.472;2023-07-13T02:49:59;1999.90;;;999.90;;
23594;SDS011;11975;47.674;9.472;2023-07-13T02:52:25;1999.90;;;999.90;;
23594;SDS011;11975;47.674;9.472;2023-07-13T02:54:51;1999.90;;;999.90;;
23594;SDS011;11975;47.674;9.472;2023-07-13T02:57:17;1999.90;;;999.90;;
23594;SDS011;11975;47.674;9.472;2023-07-13T02:59:43;1999.90;;;999.90;;
23594;SDS011;11975;47.674;9.472;2023-07-13T03:02:09;1999.90;;;999.90;;
23594;SDS011;11975;47.674;9.472;2023-07-13T03:04:36;1999.90;;;999.90;;
23594;SDS011;11975;47.674;9.472;2023-07-13T03:07:02;1999.90;;;999.90;;
23594;SDS011;11975;47.674;9.472;2023-07-13T03:09:29;1999.90;;;999.90;;
23594;SDS011;11975;47.674;9.472;2023-07-13T03:11:55;1999.90;;;999.90;;
23594;SDS011;11975;47.674;9.472;2023-07-13T03:14:21;1999.90;;;999.90;;
23594;SDS011;11975;47.674;9.472;2023-07-13T03:16:48;1999.90;;;999.90;;
23594;SDS011;11975;47.674;9.472;2023-07-13T03:19:14;1999.90;;;999.90;;
23594;SDS011;11975;47.674;9.472;2023-07-13T03:21:40;1999.90;;;999.90;;
23594;SDS011;11975;47.674;9.472;2023-07-13T03:24:06;1999.90;;;999.90;;
23594;SDS011;11975;47.674;9.472;2023-07-13T03:26:32;1999.90;;;999.90;;
23594;SDS011;11975;47.674;9.472;2023-07-13T03:28:58;1999.90;;;999.90;;
23594;SDS011;11975;47.674;9.472;2023-07-13T03:31:25;1999.90;;;999.90;;
23594;SDS011;11975;47.674;9.472;2023-07-13T03:33:54;1999.90;;;999.90;;
23594;SDS011;11975;47.674;9.472;2023-07-13T03:36:22;1999.90;;;999.90;;
23594;SDS011;11975;47.674;9.472;2023-07-13T03:38:50;1999.90;;;999.90;;
23594;SDS011;11975;47.674;9.472;2023-07-13T03:41:18;1999.90;;;999.90;;
23594;SDS011;11975;47.674;9.472;2023-07-13T03:43:44;1999.90;;;999.90;;
23594;SDS011;11975;47.674;9.472;2023-07-13T03:46:10;1999.90;;;999.90;;
23594;SDS011;11975;47.674;9.472;2023-07-13T03:48:36;1999.90;;;999.90;;
23594;SDS011;11975;47.674;9.472;2023-07-13T03:51:02;1999.90;;;999.90;;
23594;SDS011;11975;47.674;9.472;2023-07-13T03:53:28;1999.90;;;999.90;;
23594;SDS011;11975;47.674;9.472;2023-07-13T03:55:54;1999.90;;;999.90;;
23594;SDS011;11975;47.674;9.472;2023-07-13T03:58:28;1999.90;;;999.90;;
23594;SDS011;11975;47.674;9.472;2023-07-13T04:00:56;1999.90;;;999.90;;
23594;SDS011;11975;47.674;9.472;2023-07-13T04:03:23;1999.90;;;999.90;;
23594;SDS011;11975;47.674;9.472;2023-07-13T04:05:49;1999.90;;;999.90;;
23594;SDS011;11975;47.674;9.472;2023-07-13T04:08:15;1999.90;;;999.90;;
23594;SDS011;11975;47.674;9.472;2023-07-13T04:10:42;1999.90;;;999.90;;
23594;SDS011;11975;47.674;9.472;2023-07-13T04:13:08;1999.90;;;999.90;;
23594;SDS011;11975;47.674;9.472;2023-07-13T04:15:34;1999.90;;;999.90;;
23594;SDS011;11975;47.674;9.472;2023-07-13T04:18:00;1999.90;;;999.90;;
23594;SDS011;11975;47.674;9.472;2023-07-13T04:20:26;1999.90;;;999.90;;
23594;SDS011;11975;47.674;9.472;2023-07-13T04:22:52;1999.90;;;999.90;;
23594;SDS011;11975;47.674;9.472;2023-07-13T04:25:21;1999.90;;;999.90;;
23594;SDS011;11975;47.674;9.472;2023-07-13T04:27:47;1999.90;;;999.90;;
23594;SDS011;11975;47.674;9.472;2023-07-13T04:30:13;1999.90;;;999.90;;
23594;SDS011;11975;47.674;9.472;2023-07-13T04:32:39;1999.90;;;999.90;;
23594;SDS011;11975;47.674;9.472;2023-07-13T04:35:05;1999.90;;;999.90;;
23594;SDS011;11975;47.674;9.472;2023-07-13T04:37:31;1999.90;;;999.90;;
23594;SDS011;11975;47.674;9.472;2023-07-13T04:39:57;1999.90;;;999.90;;
23594;SDS011;11975;47.674;9.472;2023-07-13T04:42:23;1999.90;;;999.90;;
23594;SDS011;11975;47.674;9.472;2023-07-13T04:44:49;1999.90;;;999.90;;
23594;SDS011;11975;47.674;9.472;2023-07-13T04:49:42;1999.90;;;999.90;;
23594;SDS011;11975;47.674;9.472;2023-07-13T04:52:08;1999.90;;;999.90;;
23594;SDS011;11975;47.674;9.472;2023-07-13T04:54:34;1999.90;;;999.90;;
23594;SDS011;11975;47.674;9.472;2023-07-13T04:57:00;1999.90;;;999.90;;
23594;SDS011;11975;47.674;9.472;2023-07-13T04:59:26;1999.90;;;999.90;;
23594;SDS011;11975;47.674;9.472;2023-07-13T05:01:52;1999.90;;;999.90;;
23594;SDS011;11975;47.674;9.472;2023-07-13T05:04:18;1999.90;;;999.90;;
23594;SDS011;11975;47.674;9.472;2023-07-13T05:06:44;1999.90;;;999.90;;
23594;SDS011;11975;47.674;9.472;2023-07-13T05:09:10;1999.90;;;999.90;;
23594;SDS011;11975;47.674;9.472;2023-07-13T05:11:38;1999.90;;;999.90;;
23594;SDS011;11975;47.674;9.472;2023-07-13T05:14:04;1999.90;;;999.90;;
23594;SDS011;11975;47.674;9.472;2023-07-13T05:16:30;1999.90;;;999.90;;
23594;SDS011;11975;47.674;9.472;2023-07-13T05:18:57;1999.90;;;999.90;;
23594;SDS011;11975;47.674;9.472;2023-07-13T05:21:23;1999.90;;;999.90;;
23594;SDS011;11975;47.674;9.472;2023-07-13T05:23:50;1999.90;;;999.90;;
23594;SDS011;11975;47.674;9.472;2023-07-13T05:26:15;1999.90;;;999.90;;
23594;SDS011;11975;47.674;9.472;2023-07-13T05:28:41;1999.90;;;999.90;;
23594;SDS011;11975;47.674;9.472;2023-07-13T05:31:08;1999.90;;;999.90;;
23594;SDS011;11975;47.674;9.472;2023-07-13T05:36:00;1999.90;;;999.90;;
23594;SDS011;11975;47.674;9.472;2023-07-13T05:38:27;1999.90;;;999.90;;
23594;SDS011;11975;47.674;9.472;2023-07-13T05:40:53;1999.90;;;999.90;;
23594;SDS011;11975;47.674;9.472;2023-07-13T05:43:21;1999.90;;;999.90;;
23594;SDS011;11975;47.674;9.472;2023-07-13T05:45:47;1999.90;;;999.90;;
23594;SDS011;11975;47.674;9.472;2023-07-13T05:48:13;1999.90;;;999.90;;
23594;SDS011;11975;47.674;9.472;2023-07-13T05:50:39;1999.90;;;999.90;;
23594;SDS011;11975;47.674;9.472;2023-07-13T05:53:05;1999.90;;;999.90;;
23594;SDS011;11975;47.674;9.472;2023-07-13T05:55:31;1999.90;;;999.90;;
23594;SDS011;11975;47.674;9.472;2023-07-13T05:57:57;1999.90;;;999.90;;
23594;SDS011;11975;47.674;9.472;2023-07-13T06:00:24;1999.90;;;999.90;;
23594;SDS011;11975;47.674;9.472;2023-07-13T06:02:50;1999.90;;;999.90;;
23594;SDS011;11975;47.674;9.472;2023-07-13T06:05:16;1999.90;;;999.90;;
23594;SDS011;11975;47.674;9.472;2023-07-13T06:07:42;1999.90;;;999.90;;
23594;SDS011;11975;47.674;9.472;2023-07-13T06:10:08;1999.90;;;999.90;;
23594;SDS011;11975;47.674;9.472;2023-07-13T06:12:34;1999.90;;;999.90;;
23594;SDS011;11975;47.674;9.472;2023-07-13T06:15:00;1999.90;;;999.90;;
23594;SDS011;11975;47.674;9.472;2023-07-13T06:17:26;1999.90;;;999.90;;
23594;SDS011;11975;47.674;9.472;2023-07-13T06:19:52;1999.90;;;999.90;;
23594;SDS011;11975;47.674;9.472;2023-07-13T06:22:18;1999.90;;;999.90;;
23594;SDS011;11975;47.674;9.472;2023-07-13T06:24:44;1999.90;;;999.90;;
23594;SDS011;11975;47.674;9.472;2023-07-13T06:27:10;1999.90;;;999.90;;
23594;SDS011;11975;47.674;9.472;2023-07-13T06:29:36;1999.90;;;999.90;;
23594;SDS011;11975;47.674;9.472;2023-07-13T06:32:02;1999.90;;;999.90;;
23594;SDS011;11975;47.674;9.472;2023-07-13T06:34:28;1999.90;;;999.90;;
23594;SDS011;11975;47.674;9.472;2023-07-13T06:36:54;1999.90;;;999.90;;
23594;SDS011;11975;47.674;9.472;2023-07-13T06:39:20;1999.90;;;999.90;;
23594;SDS011;11975;47.674;9.472;2023-07-13T06:41:46;1999.90;;;999.90;;
23594;SDS011;11975;47.674;9.472;2023-07-13T06:44:12;1999.90;;;999.90;;
23594;SDS011;11975;47.674;9.472;2023-07-13T06:46:38;1999.90;;;999.90;;
23594;SDS011;11975;47.674;9.472;2023-07-13T06:49:04;1999.90;;;999.90;;
23594;SDS011;11975;47.674;9.472;2023-07-13T06:51:30;1999.90;;;999.90;;
23594;SDS011;11975;47.674;9.472;2023-07-13T06:53:56;1999.90;;;999.90;;
23594;SDS011;11975;47.674;9.472;2023-07-13T06:56:21;1999.90;;;999.90;;
23594;SDS011;11975;47.674;9.472;2023-07-13T06:58:47;1999.90;;;999.90;;
23594;SDS011;11975;47.674;9.472;2023-07-13T07:01:13;1999.90;;;999.90;;
23594;SDS011;11975;47.674;9.472;2023-07-13T07:03:39;1999.90;;;999.90;;
23594;SDS011;11975;47.674;9.472;2023-07-13T07:06:12;1999.90;;;999.90;;
23594;SDS011;11975;47.674;9.472;2023-07-13T07:08:40;1999.90;;;999.90;;
23594;SDS011;11975;47.674;9.472;2023-07-13T07:11:11;1999.90;;;999.90;;
23594;SDS011;11975;47.674;9.472;2023-07-13T07:13:39;1999.90;;;999.90;;
23594;SDS011;11975;47.674;9.472;2023-07-13T07:16:05;1999.90;;;999.90;;
23594;SDS011;11975;47.674;9.472;2023-07-13T07:18:31;1999.90;;;999.90;;
23594;SDS011;11975;47.674;9.472;2023-07-13T07:20:57;1999.90;;;999.90;;
23594;SDS011;11975;47.674;9.472;2023-07-13T07:23:23;1999.90;;;999.90;;
23594;SDS011;11975;47.674;9.472;2023-07-13T07:25:49;1999.90;;;999.90;;
23594;SDS011;11975;47.674;9.472;2023-07-13T07:28:15;1999.90;;;999.90;;
23594;SDS011;11975;47.674;9.472;2023-07-13T07:30:45;1999.90;;;999.90;;
23594;SDS011;11975;47.674;9.472;2023-07-13T07:33:11;1999.90;;;999.90;;
23594;SDS011;11975;47.674;9.472;2023-07-13T07:35:37;1999.90;;;999.90;;
23594;SDS011;11975;47.674;9.472;2023-07-13T07:38:03;1999.90;;;999.90;;
23594;SDS011;11975;47.674;9.472;2023-07-13T07:40:29;1999.90;;;999.90;;
23594;SDS011;11975;47.674;9.472;2023-07-13T07:42:55;1999.90;;;999.90;;
23594;SDS011;11975;47.674;9.472;2023-07-13T07:45:21;1999.90;;;999.90;;
23594;SDS011;11975;47.674;9.472;2023-07-13T07:47:47;1999.90;;;999.90;;
23594;SDS011;11975;47.674;9.472;2023-07-13T07:50:13;1999.90;;;999.90;;
23594;SDS011;11975;47.674;9.472;2023-07-13T07:52:39;1999.90;;;999.90;;
23594;SDS011;11975;47.674;9.472;2023-07-13T07:55:06;1999.90;;;999.90;;
23594;SDS011;11975;47.674;9.472;2023-07-13T07:57:32;1999.90;;;999.90;;
23594;SDS011;11975;47.674;9.472;2023-07-13T07:59:58;1999.90;;;999.90;;
23594;SDS011;11975;47.674;9.472;2023-07-13T08:02:24;1999.90;;;999.90;;
23594;SDS011;11975;47.674;9.472;2023-07-13T08:04:51;1999.90;;;999.90;;
23594;SDS011;11975;47.674;9.472;2023-07-13T08:07:17;1999.90;;;999.90;;
23594;SDS011;11975;47.674;9.472;2023-07-13T08:09:43;1999.90;;;999.90;;
23594;SDS011;11975;47.674;9.472;2023-07-13T08:14:36;1999.90;;;999.90;;
23594;SDS011;11975;47.674;9.472;2023-07-13T08:17:02;1999.90;;;999.90;;
23594;SDS011;11975;47.674;9.472;2023-07-13T08:19:28;1999.90;;;999.90;;
23594;SDS011;11975;47.674;9.472;2023-07-13T08:21:53;1999.90;;;999.90;;
23594;SDS011;11975;47.674;9.472;2023-07-13T08:24:21;1999.90;;;999.90;;
23594;SDS011;11975;47.674;9.472;2023-07-13T08:26:48;1999.90;;;999.90;;
23594;SDS011;11975;47.674;9.472;2023-07-13T08:29:14;1999.90;;;999.90;;
23594;SDS011;11975;47.674;9.472;2023-07-13T08:31:40;1999.90;;;999.90;;
23594;SDS011;11975;47.674;9.472;2023-07-13T08:34:06;1999.90;;;999.90;;
23594;SDS011;11975;47.674;9.472;2023-07-13T08:36:32;1999.90;;;999.90;;
23594;SDS011;11975;47.674;9.472;2023-07-13T08:38:58;1999.90;;;999.90;;
23594;SDS011;11975;47.674;9.472;2023-07-13T08:41:24;22.50;;;20.75;;
23594;SDS011;11975;47.674;9.472;2023-07-13T08:43:55;1011.08;;;510.42;;
23594;SDS011;11975;47.674;9.472;2023-07-13T08:48:55;1999.90;;;999.90;;
23594;SDS011;11975;47.674;9.472;2023-07-13T08:54:05;20.40;;;19.23;;
23594;SDS011;11975;47.674;9.472;2023-07-13T08:56:36;21.48;;;20.27;;
23594;SDS011;11975;47.674;9.472;2023-07-13T08:59:05;20.70;;;19.50;;
23594;SDS011;11975;47.674;9.472;2023-07-13T09:07:34;20.77;;;19.58;;
23594;SDS011;11975;47.674;9.472;2023-07-13T09:10:05;20.27;;;19.08;;
23594;SDS011;11975;47.674;9.472;2023-07-13T09:15:45;20.25;;;19.15;;
23594;SDS011;11975;47.674;9.472;2023-07-13T09:18:28;19.63;;;18.52;;
23594;SDS011;11975;47.674;9.472;2023-07-13T09:20:59;20.23;;;18.92;;
23594;SDS011;11975;47.674;9.472;2023-07-13T09:23:29;20.65;;;18.90;;
23594;SDS011;11975;47.674;9.472;2023-07-13T09:25:59;20.50;;;19.20;;
23594;SDS011;11975;47.674;9.472;2023-07-13T09:28:28;19.40;;;18.30;;
23594;SDS011;11975;47.674;9.472;2023-07-13T09:33:22;19.90;;;18.63;;
23594;SDS011;11975;47.674;9.472;2023-07-13T09:35:48;20.37;;;19.10;;
23594;SDS011;11975;47.674;9.472;2023-07-13T09:38:16;19.92;;;18.83;;
23594;SDS011;11975;47.674;9.472;2023-07-13T09:40:51;20.92;;;19.73;;
23594;SDS011;11975;47.674;9.472;2023-07-13T09:43:22;20.98;;;19.77;;
23594;SDS011;11975;47.674;9.472;2023-07-13T09:45:48;20.53;;;19.43;;
23594;SDS011;11975;47.674;9.472;2023-07-13T09:48:14;20.10;;;18.90;;
23594;SDS011;11975;47.674;9.472;2023-07-13T09:50:42;20.45;;;19.33;;
23594;SDS011;11975;47.674;9.472;2023-07-13T09:53:15;20.80;;;19.33;;
23594;SDS011;11975;47.674;9.472;2023-07-13T09:55:43;20.08;;;18.98;;
23594;SDS011;11975;47.674;9.472;2023-07-13T10:00:38;19.70;;;18.60;;
23594;SDS011;11975;47.674;9.472;2023-07-13T10:03:13;21.17;;;19.98;;
23594;SDS011;11975;47.674;9.472;2023-07-13T10:05:45;21.90;;;20.60;;
23594;SDS011;11975;47.674;9.472;2023-07-13T10:08:19;21.90;;;20.55;;
23594;SDS011;11975;47.674;9.472;2023-07-13T10:10:57;22.27;;;20.90;;
23594;SDS011;11975;47.674;9.472;2023-07-13T10:13:28;22.10;;;20.80;;
23594;SDS011;11975;47.674;9.472;2023-07-13T10:16:00;20.00;;;18.90;;
23594;SDS011;11975;47.674;9.472;2023-07-13T10:18:27;20.90;;;19.73;;
23594;SDS011;11975;47.674;9.472;2023-07-13T10:21:10;21.23;;;19.92;;
23594;SDS011;11975;47.674;9.472;2023-07-13T10:23:39;19.80;;;18.70;;
23594;SDS011;11975;47.674;9.472;2023-07-13T10:26:05;20.93;;;19.73;;
23594;SDS011;11975;47.674;9.472;2023-07-13T10:28:37;20.52;;;19.33;;
23594;SDS011;11975;47.674;9.472;2023-07-13T10:31:05;20.08;;;18.90;;
23594;SDS011;11975;47.674;9.472;2023-07-13T10:33:37;20.30;;;19.20;;
23594;SDS011;11975;47.674;9.472;2023-07-13T10:36:14;20.88;;;19.58;;
23594;SDS011;11975;47.674;9.472;2023-07-13T10:38:43;20.70;;;19.52;;
23594;SDS011;11975;47.674;9.472;2023-07-13T10:41:12;20.85;;;19.67;;
23594;SDS011;11975;47.674;9.472;2023-07-13T10:43:46;21.40;;;20.10;;
23594;SDS011;11975;47.674;9.472;2023-07-13T10:46:15;21.50;;;20.15;;
23594;SDS011;11975;47.674;9.472;2023-07-13T10:48:43;20.30;;;19.17;;
23594;SDS011;11975;47.674;9.472;2023-07-13T10:51:13;19.88;;;18.77;;
23594;SDS011;11975;47.674;9.472;2023-07-13T10:53:40;20.90;;;19.70;;
23594;SDS011;11975;47.674;9.472;2023-07-13T10:56:14;21.30;;;20.10;;
23594;SDS011;11975;47.674;9.472;2023-07-13T10:58:48;21.40;;;19.88;;
23594;SDS011;11975;47.674;9.472;2023-07-13T11:04:21;20.10;;;19.00;;
23594;SDS011;11975;47.674;9.472;2023-07-13T11:06:50;19.40;;;18.30;;
23594;SDS011;11975;47.674;9.472;2023-07-13T11:11:55;20.02;;;18.90;;
23594;SDS011;11975;47.674;9.472;2023-07-13T11:14:29;21.02;;;19.83;;
23594;SDS011;11975;47.674;9.472;2023-07-13T11:16:56;21.00;;;19.65;;
23594;SDS011;11975;47.674;9.472;2023-07-13T11:24:48;20.58;;;19.38;;
23594;SDS011;11975;47.674;9.472;2023-07-13T11:27:31;21.08;;;19.88;;
23594;SDS011;11975;47.674;9.472;2023-07-13T11:33:03;21.02;;;19.83;;
23594;SDS011;11975;47.674;9.472;2023-07-13T11:35:36;20.45;;;19.25;;
23594;SDS011;11975;47.674;9.472;2023-07-13T11:38:09;20.75;;;19.55;;
23594;SDS011;11975;47.674;9.472;2023-07-13T11:40:39;21.27;;;20.05;;
23594;SDS011;11975;47.674;9.472;2023-07-13T11:43:06;20.50;;;19.30;;
23594;SDS011;11975;47.674;9.472;2023-07-13T11:45:33;20.50;;;19.25;;
23594;SDS011;11975;47.674;9.472;2023-07-13T11:47:58;21.60;;;20.40;;
23594;SDS011;11975;47.674;9.472;2023-07-13T11:50:26;20.83;;;19.63;;
23594;SDS011;11975;47.674;9.472;2023-07-13T11:52:53;20.37;;;19.27;;
23594;SDS011;11975;47.674;9.472;2023-07-13T11:55:21;21.15;;;19.95;;
23594;SDS011;11975;47.674;9.472;2023-07-13T11:57:51;20.85;;;19.55;;
23594;SDS011;11975;47.674;9.472;2023-07-13T12:00:20;20.38;;;19.25;;
23594;SDS011;11975;47.674;9.472;2023-07-13T12:02:50;19.88;;;18.77;;
23594;SDS011;11975;47.674;9.472;2023-07-13T12:05:18;20.30;;;19.10;;
23594;SDS011;11975;47.674;9.472;2023-07-13T12:07:46;21.17;;;19.90;;
23594;SDS011;11975;47.674;9.472;2023-07-13T12:12:40;21.13;;;19.83;;
23594;SDS011;11975;47.674;9.472;2023-07-13T12:15:13;20.65;;;19.35;;
23594;SDS011;11975;47.674;9.472;2023-07-13T12:17:39;20.83;;;19.57;;
23594;SDS011;11975;47.674;9.472;2023-07-13T12:20:17;21.60;;;20.10;;
23594;SDS011;11975;47.674;9.472;2023-07-13T12:22:46;21.35;;;20.13;;
23594;SDS011;11975;47.674;9.472;2023-07-13T12:25:13;20.65;;;19.45;;
23594;SDS011;11975;47.674;9.472;2023-07-13T12:27:39;20.27;;;19.08;;
23594;SDS011;11975;47.674;9.472;2023-07-13T12:30:20;20.30;;;19.20;;
23594;SDS011;11975;47.674;9.472;2023-07-13T12:32:58;20.73;;;19.52;;
23594;SDS011;11975;47.674;9.472;2023-07-13T12:37:56;19.92;;;18.73;;
23594;SDS011;11975;47.674;9.472;2023-07-13T12:40:26;20.70;;;19.40;;
23594;SDS011;11975;47.674;9.472;2023-07-13T12:42:54;20.20;;;19.10;;
23594;SDS011;11975;47.674;9.472;2023-07-13T12:45:21;20.20;;;19.10;;
23594;SDS011;11975;47.674;9.472;2023-07-13T12:47:50;20.67;;;19.27;;
23594;SDS011;11975;47.674;9.472;2023-07-13T12:50:20;20.23;;;19.13;;
23594;SDS011;11975;47.674;9.472;2023-07-13T12:52:55;19.73;;;18.63;;
23594;SDS011;11975;47.674;9.472;2023-07-13T12:55:25;19.73;;;18.63;;
23594;SDS011;11975;47.674;9.472;2023-07-13T12:57:52;19.37;;;18.27;;
23594;SDS011;11975;47.674;9.472;2023-07-13T13:00:24;19.27;;;18.17;;
23594;SDS011;11975;47.674;9.472;2023-07-13T13:02:58;20.42;;;19.23;;
23594;SDS011;11975;47.674;9.472;2023-07-13T13:05:32;19.23;;;18.13;;
23594;SDS011;11975;47.674;9.472;2023-07-13T13:07:59;19.52;;;18.42;;
23594;SDS011;11975;47.674;9.472;2023-07-13T13:10:25;19.80;;;18.70;;
23594;SDS011;11975;47.674;9.472;2023-07-13T13:12:51;19.63;;;18.53;;
23594;SDS011;11975;47.674;9.472;2023-07-13T13:15:18;19.55;;;18.45;;
23594;SDS011;11975;47.674;9.472;2023-07-13T13:17:44;20.42;;;19.23;;
23594;SDS011;11975;47.674;9.472;2023-07-13T13:20:17;18.93;;;17.90;;
23594;SDS011;11975;47.674;9.472;2023-07-13T13:22:45;19.83;;;18.73;;
23594;SDS011;11975;47.674;9.472;2023-07-13T13:25:11;20.70;;;19.07;;
23594;SDS011;11975;47.674;9.472;2023-07-13T13:30:09;19.60;;;18.50;;
23594;SDS011;11975;47.674;9.472;2023-07-13T13:32:47;20.27;;;19.13;;
23594;SDS011;11975;47.674;9.472;2023-07-13T13:35:14;20.55;;;19.35;;
23594;SDS011;11975;47.674;9.472;2023-07-13T13:37:41;19.58;;;18.48;;
23594;SDS011;11975;47.674;9.472;2023-07-13T13:40:18;19.73;;;18.53;;
23594;SDS011;11975;47.674;9.472;2023-07-13T13:42:44;19.65;;;18.55;;
23594;SDS011;11975;47.674;9.472;2023-07-13T13:45:11;20.40;;;19.23;;
23594;SDS011;11975;47.674;9.472;2023-07-13T13:47:38;19.95;;;18.77;;
23594;SDS011;11975;47.674;9.472;2023-07-13T13:52:41;18.92;;;17.90;;
23594;SDS011;11975;47.674;9.472;2023-07-13T13:55:14;20.25;;;19.05;;
23594;SDS011;11975;47.674;9.472;2023-07-13T13:57:40;19.38;;;18.27;;
23594;SDS011;11975;47.674;9.472;2023-07-13T14:00:09;19.98;;;18.88;;
23594;SDS011;11975;47.674;9.472;2023-07-13T14:02:46;19.65;;;18.55;;
23594;SDS011;11975;47.674;9.472;2023-07-13T14:05:13;19.77;;;18.67;;
23594;SDS011;11975;47.674;9.472;2023-07-13T14:07:41;20.30;;;19.10;;
23594;SDS011;11975;47.674;9.472;2023-07-13T14:10:16;20.30;;;19.10;;
23594;SDS011;11975;47.674;9.472;2023-07-13T14:15:15;19.65;;;18.55;;
23594;SDS011;11975;47.674;9.472;2023-07-13T14:17:46;19.55;;;18.45;;
23594;SDS011;11975;47.674;9.472;2023-07-13T14:20:15;19.67;;;18.58;;
23594;SDS011;11975;47.674;9.472;2023-07-13T14:22:42;19.75;;;18.65;;
23594;SDS011;11975;47.674;9.472;2023-07-13T14:25:11;19.67;;;18.58;;
23594;SDS011;11975;47.674;9.472;2023-07-13T14:27:38;19.58;;;18.48;;
23594;SDS011;11975;47.674;9.472;2023-07-13T14:30:11;20.20;;;19.00;;
23594;SDS011;11975;47.674;9.472;2023-07-13T14:32:38;20.55;;;19.35;;
23594;SDS011;11975;47.674;9.472;2023-07-13T14:35:04;20.13;;;18.73;;
23594;SDS011;11975;47.674;9.472;2023-07-13T14:37:30;20.65;;;19.48;;
23594;SDS011;11975;47.674;9.472;2023-07-13T14:39:56;20.67;;;19.47;;
23594;SDS011;11975;47.674;9.472;2023-07-13T14:42:22;20.00;;;18.90;;
23594;SDS011;11975;47.674;9.472;2023-07-13T14:44:48;20.53;;;18.87;;
23594;SDS011;11975;47.674;9.472;2023-07-13T14:47:15;19.77;;;18.67;;
23594;SDS011;11975;47.674;9.472;2023-07-13T14:49:43;20.77;;;19.53;;
23594;SDS011;11975;47.674;9.472;2023-07-13T14:52:17;20.38;;;19.20;;
23594;SDS011;11975;47.674;9.472;2023-07-13T14:54:45;19.47;;;18.30;;
23594;SDS011;11975;47.674;9.472;2023-07-13T14:57:12;19.73;;;18.63;;
23594;SDS011;11975;47.674;9.472;2023-07-13T14:59:39;19.52;;;18.42;;
23594;SDS011;11975;47.674;9.472;2023-07-13T15:02:19;20.60;;;19.02;;
23594;SDS011;11975;47.674;9.472;2023-07-13T15:04:56;19.83;;;18.73;;